createdAt,value
2019-06-20T00:01:26.660Z,9.87
2019-06-20T00:06:39.338Z,9.37
2019-06-20T00:11:50.344Z,10.10
2019-06-20T00:16:59.603Z,9.70
2019-06-20T00:22:08.542Z,10.60
2019-06-20T00:27:15.868Z,9.70
2019-06-20T00:32:24.945Z,10.67
2019-06-20T00:37:32.665Z,10.83
2019-06-20T00:42:39.975Z,10.67
2019-06-20T00:47:48.610Z,10.10
2019-06-20T00:52:56.012Z,10.47
2019-06-20T00:58:05.239Z,10.30
2019-06-20T01:03:18.481Z,11.03
2019-06-20T01:08:25.889Z,11.17
2019-06-20T01:13:35.622Z,10.70
2019-06-20T01:18:43.911Z,9.90
2019-06-20T01:23:52.235Z,9.53
2019-06-20T01:29:00.972Z,9.73
2019-06-20T01:34:08.353Z,9.70
2019-06-20T01:39:34.012Z,9.33
2019-06-20T01:45:00.926Z,10.33
2019-06-20T01:50:27.072Z,9.87
2019-06-20T01:55:36.930Z,10.40
2019-06-20T02:00:50.828Z,10.60
2019-06-20T02:05:59.338Z,10.30
2019-06-20T02:11:08.218Z,10.70
2019-06-20T02:16:16.322Z,10.63
2019-06-20T02:21:30.888Z,10.60
2019-06-20T02:26:38.888Z,11.23
2019-06-20T02:31:47.171Z,10.87
2019-06-20T02:37:04.551Z,10.77
2019-06-20T02:42:12.001Z,10.80
2019-06-20T02:47:20.620Z,11.90
2019-06-20T02:52:28.993Z,11.97
2019-06-20T02:57:36.690Z,12.10
2019-06-20T03:02:45.468Z,11.87
2019-06-20T03:07:52.795Z,11.90
2019-06-20T03:13:00.122Z,12.37
2019-06-20T03:18:07.605Z,11.63
2019-06-20T03:23:15.840Z,13.40
2019-06-20T03:28:23.324Z,12.80
2019-06-20T03:33:31.575Z,12.30
2019-06-20T03:38:38.957Z,12.20
2019-06-20T03:43:47.881Z,11.93
2019-06-20T03:49:13.207Z,13.27
2019-06-20T03:54:38.503Z,12.53
2019-06-20T04:00:06.479Z,13.03
2019-06-20T04:05:14.976Z,13.43
2019-06-20T04:10:24.505Z,13.80
2019-06-20T04:15:50.644Z,12.07
2019-06-20T04:20:59.128Z,10.87
2019-06-20T04:26:07.963Z,11.27
2019-06-20T04:31:15.954Z,10.97
2019-06-20T04:36:42.065Z,11.30
2019-06-20T04:42:07.718Z,11.97
2019-06-20T04:47:33.030Z,12.03
2019-06-20T04:52:58.463Z,12.60
2019-06-20T04:58:08.668Z,10.30
2019-06-20T05:03:35.032Z,10.67
2019-06-20T05:09:02.899Z,9.03
2019-06-20T05:14:28.666Z,8.53
2019-06-20T05:19:54.221Z,6.90
2019-06-20T05:25:20.804Z,6.60
2019-06-20T05:30:47.558Z,5.80
2019-06-20T05:36:13.119Z,5.30
2019-06-20T05:41:39.986Z,5.40
2019-06-20T05:46:51.364Z,5.40
2019-06-20T05:52:17.478Z,5.30
2019-06-20T05:57:43.037Z,4.97
2019-06-20T06:03:09.007Z,5.73
2019-06-20T06:08:22.840Z,5.50
2019-06-20T06:13:48.943Z,5.43
2019-06-20T06:19:14.371Z,5.30
2019-06-20T06:24:21.894Z,4.93
2019-06-20T06:29:48.240Z,5.83
2019-06-20T06:35:10.808Z,6.07
2019-06-20T06:40:38.740Z,6.03
2019-06-20T06:46:03.999Z,6.30
2019-06-20T06:51:30.640Z,6.17
2019-06-20T06:56:55.883Z,5.90
2019-06-20T07:02:21.382Z,6.40
2019-06-20T07:07:46.691Z,6.13
2019-06-20T07:13:13.168Z,5.90
2019-06-20T07:18:25.197Z,5.87
2019-06-20T07:23:35.084Z,6.33
2019-06-20T07:28:42.585Z,5.97
2019-06-20T07:34:00.633Z,5.80
2019-06-20T07:39:10.657Z,6.10
2019-06-20T07:44:25.567Z,6.00
2019-06-20T07:49:35.533Z,6.20
2019-06-20T07:54:42.857Z,6.10
2019-06-20T07:59:56.876Z,6.10
2019-06-20T08:05:06.841Z,5.77
2019-06-20T08:10:17.202Z,5.70
2019-06-20T08:15:25.758Z,5.70
2019-06-20T08:20:34.909Z,5.70
2019-06-20T08:25:43.224Z,5.33
2019-06-20T08:30:52.266Z,5.83
2019-06-20T08:36:00.500Z,4.93
2019-06-20T08:41:08.715Z,5.07
2019-06-20T08:46:16.049Z,5.00
2019-06-20T08:51:23.834Z,4.73
2019-06-20T08:56:31.148Z,4.50
2019-06-20T09:01:41.012Z,4.60
2019-06-20T09:07:06.567Z,4.70
2019-06-20T09:12:16.577Z,4.70
2019-06-20T09:17:26.151Z,5.07
2019-06-20T09:22:34.900Z,4.60
2019-06-20T09:27:43.018Z,4.90
2019-06-20T09:32:59.966Z,4.30
2019-06-20T09:38:07.873Z,4.20
2019-06-20T09:43:27.241Z,4.27
2019-06-20T09:48:28.086Z,4.33
2019-06-20T09:53:36.432Z,5.03
2019-06-20T09:58:55.314Z,4.50
2019-06-20T10:04:04.936Z,4.00
2019-06-20T10:09:12.100Z,3.93
2019-06-20T10:14:20.100Z,3.90
2019-06-20T10:19:27.898Z,4.27
2019-06-20T10:24:37.282Z,3.80
2019-06-20T10:29:47.469Z,3.57
2019-06-20T10:34:57.116Z,3.90
2019-06-20T10:40:06.653Z,3.53
2019-06-20T10:45:21.649Z,3.53
2019-06-20T10:50:30.148Z,3.53
2019-06-20T10:55:37.822Z,3.60
2019-06-20T11:00:46.150Z,3.57
2019-06-20T11:05:53.817Z,3.43
2019-06-20T11:11:01.046Z,3.17
2019-06-20T11:16:08.368Z,3.30
2019-06-20T11:21:16.704Z,3.20
2019-06-20T11:26:25.156Z,3.13
2019-06-20T11:31:32.454Z,3.13
2019-06-20T11:36:40.378Z,2.30
2019-06-20T11:41:55.878Z,2.23
2019-06-20T11:47:04.473Z,2.50
2019-06-20T11:52:11.991Z,2.60
2019-06-20T11:57:21.873Z,2.57
2019-06-20T12:02:46.335Z,2.10
2019-06-20T12:07:54.042Z,2.20
2019-06-20T12:13:02.302Z,2.10
2019-06-20T12:18:09.600Z,2.10
2019-06-20T12:23:18.227Z,2.20
2019-06-20T12:28:26.879Z,2.30
2019-06-20T12:33:39.683Z,2.73
2019-06-20T12:38:50.784Z,2.40
2019-06-20T12:44:01.686Z,2.40
2019-06-20T12:49:18.237Z,2.60
2019-06-20T12:54:25.694Z,2.80
2019-06-20T12:59:33.007Z,2.60
2019-06-20T13:04:46.063Z,2.70
2019-06-20T13:09:55.036Z,2.70
2019-06-20T13:15:07.966Z,3.00
2019-06-20T13:20:15.712Z,2.90
2019-06-20T13:25:22.955Z,3.00
2019-06-20T13:30:31.395Z,2.97
2019-06-20T13:35:40.505Z,3.10
2019-06-20T13:40:49.494Z,2.83
2019-06-20T13:45:56.841Z,3.70
2019-06-20T13:51:06.447Z,3.47
2019-06-20T13:56:14.049Z,3.70
2019-06-20T14:01:22.271Z,4.33
2019-06-20T14:06:35.700Z,3.80
2019-06-20T14:11:45.330Z,3.60
2019-06-20T14:16:54.026Z,3.67
2019-06-20T14:22:06.197Z,3.30
2019-06-20T14:27:15.988Z,3.50
2019-06-20T14:32:24.593Z,3.47
2019-06-20T14:37:31.888Z,3.23
2019-06-20T14:42:40.056Z,3.37
2019-06-20T14:47:47.709Z,3.57
2019-06-20T14:52:55.367Z,4.00
2019-06-20T14:58:02.581Z,3.27
2019-06-20T15:03:11.174Z,3.20
2019-06-20T15:08:19.412Z,3.03
2019-06-20T15:13:31.459Z,3.10
2019-06-20T15:18:39.606Z,5.40
2019-06-20T15:23:49.171Z,2.40
2019-06-20T15:28:57.070Z,2.80
2019-06-20T15:34:05.843Z,2.60
2019-06-20T15:39:13.154Z,2.10
2019-06-20T15:44:39.682Z,2.20
2019-06-20T15:49:49.373Z,2.10
2019-06-20T15:54:56.785Z,1.87
2019-06-20T16:00:06.675Z,2.00
2019-06-20T16:05:33.010Z,2.27
2019-06-20T16:11:00.154Z,2.20
2019-06-20T16:16:07.356Z,2.13
2019-06-20T16:21:25.634Z,2.13
2019-06-20T16:26:51.213Z,2.07
2019-06-20T16:32:16.729Z,2.00
2019-06-20T16:37:42.920Z,2.20
2019-06-20T16:42:52.077Z,2.10
2019-06-20T16:48:01.805Z,2.40
2019-06-20T16:53:10.025Z,2.53
2019-06-20T16:58:19.380Z,2.50
2019-06-20T17:03:41.302Z,2.40
2019-06-20T17:08:37.717Z,2.30
2019-06-20T17:13:45.050Z,2.13
2019-06-20T17:19:06.821Z,2.60
2019-06-20T17:24:18.164Z,2.83
2019-06-20T17:29:26.453Z,2.70
2019-06-20T17:34:34.787Z,2.80
2019-06-20T17:39:42.082Z,6.77
2019-06-20T17:44:50.585Z,3.07
2019-06-20T17:49:59.056Z,3.03
2019-06-20T17:55:08.650Z,3.60
2019-06-20T18:00:21.706Z,3.80
2019-06-20T18:05:47.106Z,3.30
2019-06-20T18:11:12.493Z,3.43
2019-06-20T18:16:38.559Z,3.23
2019-06-20T18:22:04.866Z,4.63
2019-06-20T18:27:28.523Z,3.90
2019-06-20T18:32:35.898Z,3.40
2019-06-20T18:37:43.243Z,3.87
2019-06-20T18:42:51.151Z,3.43
2019-06-20T18:47:59.986Z,3.07
2019-06-20T18:53:07.893Z,3.20
2019-06-20T18:58:15.510Z,3.30
2019-06-20T19:03:24.685Z,4.50
2019-06-20T19:08:49.617Z,3.73
2019-06-20T19:14:06.777Z,4.20
2019-06-20T19:19:21.277Z,4.10
2019-06-20T19:24:29.321Z,3.90
2019-06-20T19:29:37.739Z,3.80
2019-06-20T19:35:00.989Z,4.00
2019-06-20T19:40:01.934Z,4.37
2019-06-20T19:45:12.054Z,4.00
2019-06-20T19:50:20.334Z,4.37
2019-06-20T19:55:37.453Z,4.10
2019-06-20T20:00:46.520Z,4.30
2019-06-20T20:05:58.098Z,4.33
2019-06-20T20:11:09.783Z,4.70
2019-06-20T20:16:36.566Z,4.50
2019-06-20T20:21:54.459Z,5.20
2019-06-20T20:27:20.077Z,5.57
2019-06-20T20:32:46.304Z,6.37
2019-06-20T20:38:08.694Z,6.33
2019-06-20T20:43:35.229Z,6.80
2019-06-20T20:49:01.410Z,6.53
2019-06-20T20:54:26.879Z,6.87
2019-06-20T20:59:52.786Z,6.87
2019-06-20T21:05:06.299Z,6.90
2019-06-20T21:10:15.493Z,5.80
2019-06-20T21:15:41.067Z,6.00
2019-06-20T21:20:52.039Z,5.50
2019-06-20T21:26:02.128Z,5.50
2019-06-20T21:31:10.135Z,5.37
2019-06-20T21:36:35.977Z,5.73
2019-06-20T21:42:14.878Z,5.77
2019-06-20T21:47:23.732Z,5.90
2019-06-20T21:52:49.811Z,5.43
2019-06-20T21:58:05.115Z,5.40
2019-06-20T22:03:22.429Z,5.10
2019-06-20T22:08:48.765Z,5.57
2019-06-20T22:14:15.074Z,5.30
2019-06-20T22:19:40.744Z,5.30
2019-06-20T22:25:00.898Z,5.50
2019-06-20T22:30:14.130Z,5.83
2019-06-20T22:35:39.534Z,7.30
2019-06-20T22:41:05.229Z,5.80
2019-06-20T22:46:31.659Z,6.23
2019-06-20T23:10:09.316Z,6.07
2019-06-20T23:15:24.058Z,6.10
2019-06-20T23:21:04.102Z,5.37
2019-06-20T23:26:17.266Z,5.47
2019-06-20T23:31:42.668Z,5.50
2019-06-20T23:37:12.394Z,5.73
2019-06-20T23:42:28.921Z,5.07
2019-06-20T23:47:54.653Z,5.60
2019-06-20T23:53:22.703Z,5.47
2019-06-20T23:58:33.713Z,5.47
